Time;durP1;ratioP1;P1;durP2;ratioP2;P2;SDS_P1;SDS_P2;PMS_P1;PMS_P2;Temp;Humidity;BMP_temperature;BMP_pressure;BME280_temperature;BME280_humidity;BME280_pressure;Samples;Min_cycle;Max_cycle;Signal;HPM_P1;HPM_P2
2022/08/04 00:01:22;;;;;;;;;;;;;;;23.43;100.00;96259.63;5106072;28;19959;-54
2022/08/04 00:03:52;;;;;;;;;;;;;;;23.29;100.00;96256.31;5107929;28;19962;-53
2022/08/04 00:06:24;;;;;;;;;;;;;;;23.19;100.00;96264.94;5106297;28;20351;-49
2022/08/04 00:08:55;;;;;;;;;;;;;;;22.94;100.00;96251.63;5101374;28;19955;-55
2022/08/04 00:11:24;;;;;;;;;;;;;;;22.96;100.00;96259.47;5108252;28;19959;-46
2022/08/04 00:13:54;;;;;;;;;;;;;;;22.61;100.00;96256.56;5108748;28;19959;-51
2022/08/04 00:16:32;;;;;;;;;;;;;;;22.51;100.00;96255.25;5105442;28;20413;-53
2022/08/04 00:19:07;;;;;;;;;;;;;;;22.89;100.00;96261.41;5104365;28;20401;-48
2022/08/04 00:21:36;;;;;;;;;;;;;;;22.93;100.00;96263.44;5103231;28;19974;-47
2022/08/04 00:24:06;;;;;;;;;;;;;;;22.73;100.00;96258.28;5099545;28;19967;-55
2022/08/04 00:26:39;;;;;;;;;;;;;;;22.77;100.00;96269.41;5107727;28;20384;-50
2022/08/04 00:29:08;;;;;;;;;;;;;;;22.57;100.00;96266.13;5108712;28;19978;-47
2022/08/04 00:31:36;;;;;;;;;;;;;;;22.51;100.00;96266.00;5102772;28;19967;-50
2022/08/04 00:34:24;;;;;;;;;;;;;;;22.53;100.00;96265.75;5106980;28;19952;-46
2022/08/04 00:36:52;;;;;;;;;;;;;;;22.49;100.00;96264.56;5108103;28;19993;-50
2022/08/04 00:39:22;;;;;;;;;;;;;;;22.47;100.00;96263.97;5107746;28;19974;-48
2022/08/04 00:41:53;;;;;;;;;;;;;;;22.43;100.00;96263.59;5103516;28;19955;-53
2022/08/04 00:44:27;;;;;;;;;;;;;;;22.45;100.00;96276.81;5107304;28;19970;-55
2022/08/04 00:47:04;;;;;;;;;;;;;;;22.43;100.00;96268.16;5107594;28;20432;-46
2022/08/04 00:49:56;;;;;;;;;;;;;;;22.45;100.00;96263.38;5097614;28;19971;-48
2022/08/04 00:52:36;;;;;;;;;;;;;;;22.42;100.00;96271.91;5079821;28;20420;-50
2022/08/04 00:55:11;;;;;;;;;;;;;;;22.31;100.00;96262.72;5102150;28;19978;-48
2022/08/04 00:57:49;;;;;;;;;;;;;;;22.19;100.00;96262.63;5108022;28;19967;-50
2022/08/04 01:00:17;;;;;;;;;;;;;;;22.21;100.00;96267.78;5100237;28;19978;-50
2022/08/04 01:02:49;;;;;;;;;;;;;;;21.87;100.00;96269.94;5106458;28;20690;-48
2022/08/04 01:05:20;;;;;;;;;;;;;;;22.04;100.00;96262.13;5104224;28;19955;-52
2022/08/04 01:08:01;;;;;;;;;;;;;;;22.05;100.00;96264.59;5107598;28;19977;-48
2022/08/04 01:10:35;;;;;;;;;;;;;;;22.00;100.00;96253.69;5106234;28;20488;-48
2022/08/04 01:13:10;;;;;;;;;;;;;;;21.88;100.00;96258.13;5101617;28;19963;-48
2022/08/04 01:15:45;;;;;;;;;;;;;;;21.75;100.00;96261.78;5107132;27;19971;-50
2022/08/04 01:18:30;;;;;;;;;;;;;;;21.77;100.00;96259.69;5103664;28;19962;-47
2022/08/04 01:21:06;;;;;;;;;;;;;;;21.84;100.00;96258.81;5106330;28;19955;-47
2022/08/04 01:23:49;;;;;;;;;;;;;;;21.68;100.00;96252.97;5105590;28;20384;-54
2022/08/04 01:26:33;;;;;;;;;;;;;;;21.60;100.00;96258.59;5102133;28;19959;-50
2022/08/04 01:29:23;;;;;;;;;;;;;;;21.35;100.00;96258.59;5105377;28;19974;-51
2022/08/04 01:32:00;;;;;;;;;;;;;;;21.29;100.00;96256.72;5104551;28;19951;-55
2022/08/04 01:34:31;;;;;;;;;;;;;;;21.30;100.00;96248.47;5099033;28;19970;-47
2022/08/04 01:37:00;;;;;;;;;;;;;;;21.39;100.00;96257.09;5100880;28;19970;-54
2022/08/04 01:39:43;;;;;;;;;;;;;;;21.33;100.00;96257.94;5106439;28;19978;-47
2022/08/04 01:42:11;;;;;;;;;;;;;;;21.21;100.00;96257.81;5100900;28;19962;-46
2022/08/04 01:44:59;;;;;;;;;;;;;;;21.17;100.00;96253.13;5100517;28;20649;-48
2022/08/04 01:47:29;;;;;;;;;;;;;;;21.15;100.00;96260.53;5105953;28;20382;-50
2022/08/04 01:50:00;;;;;;;;;;;;;;;20.92;100.00;96261.94;5104904;28;20428;-55
2022/08/04 01:52:28;;;;;;;;;;;;;;;20.83;100.00;96264.03;5104305;28;20372;-51
2022/08/04 01:54:56;;;;;;;;;;;;;;;20.99;100.00;96259.19;5105066;28;19966;-46
2022/08/04 01:57:24;;;;;;;;;;;;;;;20.97;100.00;96262.09;5096237;28;19967;-56
2022/08/04 02:00:08;;;;;;;;;;;;;;;21.02;100.00;96269.47;5105397;28;19970;-57
2022/08/04 02:02:36;;;;;;;;;;;;;;;21.02;100.00;96258.75;5097976;28;19963;-50
2022/08/04 02:05:05;;;;;;;;;;;;;;;20.96;100.00;96257.78;5106570;28;19993;-46
2022/08/04 02:07:40;;;;;;;;;;;;;;;20.66;100.00;96259.38;5100567;28;19959;-48
2022/08/04 02:10:10;;;;;;;;;;;;;;;20.66;100.00;96267.41;5096638;28;19963;-46
2022/08/04 02:12:43;;;;;;;;;;;;;;;20.71;100.00;96262.22;5104521;28;19963;-45
2022/08/04 02:15:13;;;;;;;;;;;;;;;20.98;100.00;96260.22;5105302;28;19923;-50
2022/08/04 02:17:45;;;;;;;;;;;;;;;21.14;100.00;96253.53;5104701;28;19955;-48
2022/08/04 02:20:15;;;;;;;;;;;;;;;20.86;100.00;96263.59;5104328;28;19966;-47
2022/08/04 02:22:46;;;;;;;;;;;;;;;20.78;100.00;96258.47;5099360;28;20017;-51
2022/08/04 02:25:16;;;;;;;;;;;;;;;20.65;100.00;96261.22;5103125;28;20409;-48
2022/08/04 02:27:50;;;;;;;;;;;;;;;20.59;100.00;96262.06;5100845;28;19967;-56
2022/08/04 02:30:31;;;;;;;;;;;;;;;20.70;100.00;96258.72;5106552;28;19967;-49
2022/08/04 02:33:01;;;;;;;;;;;;;;;20.64;100.00;96254.19;5104025;28;19952;-49
2022/08/04 02:35:29;;;;;;;;;;;;;;;20.58;100.00;96263.94;5104354;28;19982;-46
2022/08/04 02:38:00;;;;;;;;;;;;;;;20.29;100.00;96259.03;5100409;28;19974;-53
2022/08/04 02:40:28;;;;;;;;;;;;;;;19.92;100.00;96264.06;5105326;28;20435;-48
2022/08/04 02:42:56;;;;;;;;;;;;;;;19.92;100.00;96261.38;5106174;28;20061;-48
2022/08/04 02:45:25;;;;;;;;;;;;;;;20.22;100.00;96256.38;5107878;28;19975;-55
2022/08/04 02:47:54;;;;;;;;;;;;;;;20.39;100.00;96254.06;5109109;28;19964;-45
2022/08/04 02:50:42;;;;;;;;;;;;;;;20.55;100.00;96253.63;5107455;28;19975;-54
2022/08/04 02:53:12;;;;;;;;;;;;;;;20.54;100.00;96252.00;5106015;28;19967;-45
2022/08/04 02:55:40;;;;;;;;;;;;;;;20.48;100.00;96243.97;5107382;28;19963;-49
2022/08/04 02:58:20;;;;;;;;;;;;;;;20.33;100.00;96249.56;5107402;27;20391;-48
2022/08/04 03:00:48;;;;;;;;;;;;;;;20.46;100.00;96246.84;5112057;27;19971;-47
2022/08/04 03:03:20;;;;;;;;;;;;;;;20.29;100.00;96251.00;5112500;27;19967;-46
2022/08/04 03:05:58;;;;;;;;;;;;;;;20.03;100.00;96252.75;5111861;27;19951;-46
2022/08/04 03:08:42;;;;;;;;;;;;;;;19.92;100.00;96254.19;5109654;27;20422;-47
2022/08/04 03:11:22;;;;;;;;;;;;;;;20.30;100.00;96244.63;5111239;27;19959;-51
2022/08/04 03:14:08;;;;;;;;;;;;;;;20.05;100.00;96241.81;5107686;27;19965;-50
2022/08/04 03:16:45;;;;;;;;;;;;;;;20.07;100.00;96248.59;5106414;27;19955;-47
2022/08/04 03:19:37;;;;;;;;;;;;;;;20.20;100.00;96245.09;5111832;27;19971;-62
2022/08/04 03:22:29;;;;;;;;;;;;;;;20.30;100.00;96252.66;5048016;28;19976;-51
2022/08/04 03:25:05;;;;;;;;;;;;;;;20.24;100.00;96245.47;5110798;27;19959;-53
2022/08/04 03:27:54;;;;;;;;;;;;;;;19.98;100.00;96252.53;5109258;27;19981;-45
2022/08/04 03:30:23;;;;;;;;;;;;;;;20.02;100.00;96247.56;5110544;27;19966;-54
2022/08/04 03:33:24;;;;;;;;;;;;;;;20.21;100.00;96251.25;5110282;27;19955;-51
2022/08/04 03:36:01;;;;;;;;;;;;;;;20.18;100.00;96255.16;5043905;28;19986;-52
2022/08/04 03:38:40;;;;;;;;;;;;;;;20.17;100.00;96252.72;5043083;28;20423;-47
2022/08/04 03:41:26;;;;;;;;;;;;;;;19.57;100.00;96263.44;5081448;28;19985;-53
2022/08/04 03:44:30;;;;;;;;;;;;;;;19.84;100.00;96258.94;5107812;27;19970;-53
2022/08/04 03:47:07;;;;;;;;;;;;;;;19.98;100.00;96255.19;5103860;28;19967;-48
2022/08/04 03:49:39;;;;;;;;;;;;;;;19.92;100.00;96250.69;5105676;28;19971;-53
2022/08/04 03:55:11;;;;;;;;;;;;;;;20.06;100.00;96255.00;5109467;27;20379;-46
2022/08/04 03:57:52;;;;;;;;;;;;;;;19.85;100.00;96255.22;5099869;28;20390;-48
2022/08/04 04:00:20;;;;;;;;;;;;;;;19.80;100.00;96252.34;5106229;27;19967;-53
2022/08/04 04:03:06;;;;;;;;;;;;;;;19.66;100.00;96260.38;5102014;27;20372;-46
2022/08/04 04:05:58;;;;;;;;;;;;;;;19.72;100.00;96263.25;5107481;28;20008;-52
2022/08/04 04:08:53;;;;;;;;;;;;;;;19.92;100.00;96250.69;5096874;28;19932;-50
2022/08/04 04:11:48;;;;;;;;;;;;;;;19.68;100.00;96260.16;5105923;28;19974;-59
2022/08/04 04:14:27;;;;;;;;;;;;;;;19.98;100.00;96260.56;5111858;28;19955;-52
2022/08/04 04:16:59;;;;;;;;;;;;;;;20.16;100.00;96257.22;5115526;27;19982;-50
2022/08/04 04:19:33;;;;;;;;;;;;;;;20.15;100.00;96258.25;5108538;28;19970;-53
2022/08/04 04:22:05;;;;;;;;;;;;;;;20.57;100.00;96256.91;5111448;28;19959;-48
2022/08/04 04:24:34;;;;;;;;;;;;;;;22.03;100.00;96253.25;5111486;28;19953;-51
2022/08/04 04:27:06;;;;;;;;;;;;;;;22.82;100.00;96258.00;5111874;28;19959;-45
2022/08/04 04:29:51;;;;;;;;;;;;;;;23.59;100.00;96256.25;5111241;28;19963;-47
2022/08/04 04:32:22;;;;;;;;;;;;;;;24.26;100.00;96247.03;5111263;28;19966;-48
2022/08/04 04:34:59;;;;;;;;;;;;;;;24.89;100.00;96248.13;5110911;28;19959;-52
2022/08/04 04:37:32;;;;;;;;;;;;;;;25.52;100.00;96247.94;5111819;28;19963;-53
2022/08/04 04:40:04;;;;;;;;;;;;;;;25.90;100.00;96251.81;5104604;28;19974;-51
2022/08/04 04:42:38;;;;;;;;;;;;;;;26.34;100.00;96251.91;5104830;28;19979;-53
2022/08/04 04:45:15;;;;;;;;;;;;;;;26.51;100.00;96250.00;5104473;28;20435;-45
2022/08/04 04:47:47;;;;;;;;;;;;;;;27.10;100.00;96260.16;5110138;28;19963;-47
2022/08/04 04:50:37;;;;;;;;;;;;;;;27.83;96.28;96266.06;5110788;28;20424;-46
2022/08/04 04:53:07;;;;;;;;;;;;;;;28.16;88.35;96264.13;5103781;28;19974;-46
2022/08/04 04:55:35;;;;;;;;;;;;;;;27.43;100.00;96274.63;5104716;28;19963;-53
2022/08/04 04:58:04;;;;;;;;;;;;;;;28.03;95.73;96270.00;5105912;28;19978;-49
2022/08/04 05:00:34;;;;;;;;;;;;;;;28.14;92.15;96269.81;5110683;27;19963;-54
2022/08/04 05:03:12;;;;;;;;;;;;;;;28.36;88.99;96280.53;5110869;28;19959;-47
2022/08/04 05:05:43;;;;;;;;;;;;;;;28.52;86.46;96276.03;5106510;28;19951;-46
2022/08/04 05:08:32;;;;;;;;;;;;;;;29.03;80.41;96276.28;5110720;28;19966;-50
2022/08/04 05:11:17;;;;;;;;;;;;;;;29.41;76.33;96278.84;5110719;28;20348;-52
2022/08/04 05:13:48;;;;;;;;;;;;;;;29.82;73.82;96278.91;5106405;27;19959;-49
2022/08/04 05:16:37;;;;;;;;;;;;;;;30.03;72.63;96278.63;5113225;27;19971;-51
2022/08/04 05:19:08;;;;;;;;;;;;;;;29.70;75.36;96277.28;5110572;28;19982;-50
2022/08/04 05:21:38;;;;;;;;;;;;;;;29.95;75.28;96278.38;5109713;28;19970;-50
2022/08/04 05:24:06;;;;;;;;;;;;;;;28.77;90.76;96280.78;5110400;28;20369;-51
2022/08/04 05:26:35;;;;;;;;;;;;;;;28.11;100.00;96281.19;5110983;28;19951;-49
2022/08/04 05:29:07;;;;;;;;;;;;;;;26.74;100.00;96276.00;5110653;28;19951;-49
2022/08/04 05:31:36;;;;;;;;;;;;;;;27.02;100.00;96278.78;5109915;28;20361;-47
2022/08/04 05:34:05;;;;;;;;;;;;;;;27.65;100.00;96272.66;5110080;28;19927;-53
2022/08/04 05:36:35;;;;;;;;;;;;;;;28.04;100.00;96272.44;5110178;28;19955;-47
2022/08/04 05:39:11;;;;;;;;;;;;;;;28.27;100.00;96284.81;5104103;28;19963;-46
2022/08/04 05:41:40;;;;;;;;;;;;;;;27.90;100.00;96272.06;5108618;28;19959;-50
2022/08/04 05:44:14;;;;;;;;;;;;;;;27.82;100.00;96275.28;5109884;28;20369;-51
2022/08/04 05:46:42;;;;;;;;;;;;;;;27.81;100.00;96280.97;5110244;28;20393;-45
2022/08/04 05:49:10;;;;;;;;;;;;;;;28.27;100.00;96270.44;5110288;28;19961;-50
2022/08/04 05:51:46;;;;;;;;;;;;;;;27.83;100.00;96279.59;5109289;28;19973;-45
2022/08/04 05:54:14;;;;;;;;;;;;;;;26.74;100.00;96277.91;5108522;28;19970;-51
2022/08/04 05:56:42;;;;;;;;;;;;;;;26.45;100.00;96274.50;5109831;28;19951;-45
2022/08/04 05:59:10;;;;;;;;;;;;;;;26.72;100.00;96271.91;5110095;28;19971;-47
2022/08/04 06:01:40;;;;;;;;;;;;;;;27.13;100.00;96275.94;5109461;28;19967;-48
2022/08/04 06:04:23;;;;;;;;;;;;;;;26.28;100.00;96280.75;5109584;28;19974;-52
2022/08/04 06:06:51;;;;;;;;;;;;;;;26.83;100.00;96276.38;5110080;28;20460;-47
2022/08/04 06:09:19;;;;;;;;;;;;;;;26.96;100.00;96269.75;5109729;28;19974;-49
2022/08/04 06:11:47;;;;;;;;;;;;;;;26.74;100.00;96267.09;5108784;28;19971;-52
2022/08/04 06:14:32;;;;;;;;;;;;;;;26.11;100.00;96274.56;5106783;28;20373;-52
2022/08/04 06:17:02;;;;;;;;;;;;;;;26.90;100.00;96274.28;5112952;28;19963;-50
2022/08/04 06:19:30;;;;;;;;;;;;;;;26.01;100.00;96269.00;5109414;28;19975;-50
2022/08/04 06:22:18;;;;;;;;;;;;;;;26.74;100.00;96275.19;5107466;28;19959;-49
2022/08/04 06:24:46;;;;;;;;;;;;;;;26.60;100.00;96274.75;5109952;28;19970;-48
2022/08/04 06:27:14;;;;;;;;;;;;;;;27.39;100.00;96270.78;5107689;28;19971;-49
2022/08/04 06:29:43;;;;;;;;;;;;;;;27.39;100.00;96268.91;5109257;28;20438;-45
2022/08/04 06:32:27;;;;;;;;;;;;;;;27.06;100.00;96266.34;5109248;28;19955;-48
2022/08/04 06:35:04;;;;;;;;;;;;;;;27.78;100.00;96268.75;5108676;28;19967;-53
2022/08/04 06:37:32;;;;;;;;;;;;;;;26.85;100.00;96265.31;5107654;28;19959;-47
2022/08/04 06:40:11;;;;;;;;;;;;;;;27.73;100.00;96268.66;5109095;28;19962;-50
2022/08/04 06:42:59;;;;;;;;;;;;;;;28.15;100.00;96273.34;5112949;28;19955;-48
2022/08/04 06:45:28;;;;;;;;;;;;;;;28.31;100.00;96269.66;5113333;28;20362;-48
2022/08/04 06:47:57;;;;;;;;;;;;;;;28.59;100.00;96264.94;5113222;28;19967;-47
2022/08/04 06:50:25;;;;;;;;;;;;;;;28.49;100.00;96263.00;5112589;27;20428;-50
2022/08/04 06:53:13;;;;;;;;;;;;;;;28.21;100.00;96266.88;5108790;28;19962;-47
2022/08/04 06:55:42;;;;;;;;;;;;;;;28.43;100.00;96272.22;5113614;28;19958;-45
2022/08/04 06:58:11;;;;;;;;;;;;;;;28.34;100.00;96274.56;5113087;28;19967;-54
2022/08/04 07:00:39;;;;;;;;;;;;;;;28.62;100.00;96259.81;5113196;28;20459;-57
2022/08/04 07:03:08;;;;;;;;;;;;;;;28.81;100.00;96262.88;5112511;27;19967;-50
2022/08/04 07:05:37;;;;;;;;;;;;;;;28.03;100.00;96273.53;5112895;27;19974;-49
2022/08/04 07:08:05;;;;;;;;;;;;;;;28.86;100.00;96265.59;5112031;28;20041;-50
2022/08/04 07:10:33;;;;;;;;;;;;;;;28.08;100.00;96272.75;5110333;28;19971;-52
2022/08/04 07:13:01;;;;;;;;;;;;;;;28.58;100.00;96274.97;5112702;28;19982;-46
2022/08/04 07:15:29;;;;;;;;;;;;;;;28.66;100.00;96272.84;5112653;28;21394;-52
2022/08/04 07:18:00;;;;;;;;;;;;;;;28.80;100.00;96272.13;5115849;27;19963;-45
2022/08/04 07:20:29;;;;;;;;;;;;;;;29.55;100.00;96269.06;5109798;28;19959;-53
2022/08/04 07:23:03;;;;;;;;;;;;;;;30.05;95.61;96272.94;5112898;28;19967;-55
2022/08/04 07:25:31;;;;;;;;;;;;;;;30.10;96.18;96266.66;5112869;27;19966;-48
2022/08/04 07:28:19;;;;;;;;;;;;;;;29.97;91.08;96273.47;5106926;28;19967;-48
2022/08/04 07:30:48;;;;;;;;;;;;;;;30.45;89.25;96273.97;5112202;28;20352;-46
2022/08/04 07:33:16;;;;;;;;;;;;;;;30.67;83.64;96281.81;5111395;28;20346;-51
2022/08/04 07:35:45;;;;;;;;;;;;;;;30.36;94.65;96271.00;5111682;28;20068;-51
2022/08/04 07:38:33;;;;;;;;;;;;;;;30.58;91.33;96276.09;5112226;28;20356;-53
2022/08/04 07:41:14;;;;;;;;;;;;;;;30.14;89.43;96273.19;5112469;28;19958;-48
2022/08/04 07:44:02;;;;;;;;;;;;;;;30.16;94.88;96271.00;5107124;28;20410;-45
2022/08/04 07:46:30;;;;;;;;;;;;;;;29.92;99.56;96277.00;5110988;28;20455;-50
2022/08/04 07:48:59;;;;;;;;;;;;;;;31.01;86.28;96273.81;5112577;28;20354;-47
2022/08/04 07:51:29;;;;;;;;;;;;;;;30.69;83.70;96276.88;5111929;28;19962;-50
2022/08/04 07:53:59;;;;;;;;;;;;;;;31.63;76.11;96271.56;5112707;28;19959;-47
2022/08/04 07:56:27;;;;;;;;;;;;;;;31.08;77.97;96266.16;5111778;28;19967;-47
2022/08/04 07:58:55;;;;;;;;;;;;;;;31.21;75.33;96264.69;5112695;27;19964;-46
2022/08/04 08:01:23;;;;;;;;;;;;;;;31.25;75.27;96262.22;5111584;28;19963;-46
2022/08/04 08:03:51;;;;;;;;;;;;;;;31.49;77.56;96263.22;5112203;28;19955;-52
2022/08/04 08:06:19;;;;;;;;;;;;;;;31.54;76.29;96263.16;5110523;28;19959;-53
2022/08/04 08:09:09;;;;;;;;;;;;;;;32.09;71.77;96268.50;5112305;27;19960;-51
2022/08/04 08:11:41;;;;;;;;;;;;;;;31.63;69.96;96274.31;5111367;28;19962;-46
2022/08/04 08:14:30;;;;;;;;;;;;;;;31.82;68.72;96275.22;5107778;28;19973;-51
2022/08/04 08:16:58;;;;;;;;;;;;;;;31.10;79.58;96269.38;5113787;27;20069;-50
2022/08/04 08:19:26;;;;;;;;;;;;;;;32.36;70.05;96270.69;5111722;28;20401;-51
2022/08/04 08:21:54;;;;;;;;;;;;;;;32.43;69.83;96268.47;5111043;28;19963;-51
2022/08/04 08:24:28;;;;;;;;;;;;;;;32.73;70.78;96272.78;5112078;28;19971;-49
2022/08/04 08:26:56;;;;;;;;;;;;;;;32.63;67.44;96275.63;5111541;28;20005;-45
2022/08/04 08:29:24;;;;;;;;;;;;;;;32.39;69.26;96265.47;5111182;28;19963;-54
2022/08/04 08:31:52;;;;;;;;;;;;;;;32.75;66.92;96270.56;5110425;28;19967;-46
2022/08/04 08:34:27;;;;;;;;;;;;;;;32.54;69.26;96275.44;5111352;27;20421;-44
2022/08/04 08:36:58;;;;;;;;;;;;;;;32.57;65.97;96274.84;5111009;28;20448;-52
2022/08/04 08:39:28;;;;;;;;;;;;;;;32.96;63.48;96256.66;5111709;28;20401;-52
2022/08/04 08:42:11;;;;;;;;;;;;;;;32.54;66.65;96271.88;5110925;28;20425;-48
2022/08/04 08:44:53;;;;;;;;;;;;;;;32.47;60.50;96272.22;5107014;28;19971;-50
2022/08/04 08:47:28;;;;;;;;;;;;;;;32.78;59.37;96267.25;5111139;28;20424;-50
2022/08/04 08:50:18;;;;;;;;;;;;;;;32.49;58.44;96267.31;5110894;28;19970;-48
2022/08/04 08:52:56;;;;;;;;;;;;;;;32.76;60.17;96271.34;5111087;28;19963;-51
2022/08/04 08:55:36;;;;;;;;;;;;;;;33.16;61.62;96263.78;5106479;28;19993;-50
2022/08/04 08:58:11;;;;;;;;;;;;;;;33.49;56.23;96270.19;5110904;28;19951;-51
2022/08/04 09:00:42;;;;;;;;;;;;;;;33.27;56.09;96274.28;5110790;28;19963;-53
2022/08/04 09:03:27;;;;;;;;;;;;;;;33.43;53.00;96271.34;5110447;27;19987;-46
2022/08/04 09:06:05;;;;;;;;;;;;;;;33.00;55.52;96274.09;5104696;28;19970;-53
2022/08/04 09:08:48;;;;;;;;;;;;;;;33.52;53.26;96275.88;5105991;28;19974;-49
2022/08/04 09:11:19;;;;;;;;;;;;;;;33.57;55.29;96264.06;5108066;28;20386;-47
2022/08/04 09:13:48;;;;;;;;;;;;;;;33.92;53.44;96273.63;5110130;27;19974;-51
2022/08/04 09:16:17;;;;;;;;;;;;;;;33.85;54.27;96270.44;5111744;27;19993;-49
2022/08/04 09:18:47;;;;;;;;;;;;;;;33.52;54.44;96275.88;5110912;28;20330;-51
2022/08/04 09:21:17;;;;;;;;;;;;;;;33.25;53.71;96265.59;5110235;28;19967;-46
2022/08/04 09:23:46;;;;;;;;;;;;;;;33.77;50.07;96271.13;5110129;28;20379;-50
2022/08/04 09:26:16;;;;;;;;;;;;;;;33.40;52.22;96271.94;5110187;28;19967;-50
2022/08/04 09:28:47;;;;;;;;;;;;;;;34.00;51.78;96262.03;5109557;28;19977;-50
2022/08/04 09:31:22;;;;;;;;;;;;;;;34.37;48.09;96265.75;5106392;28;19971;-49
2022/08/04 09:33:51;;;;;;;;;;;;;;;33.86;48.89;96265.78;5104426;28;19975;-52
2022/08/04 09:36:26;;;;;;;;;;;;;;;33.81;49.03;96260.41;5110159;28;20038;-52
2022/08/04 09:39:00;;;;;;;;;;;;;;;33.11;51.80;96261.97;5109787;28;19975;-48
2022/08/04 09:41:30;;;;;;;;;;;;;;;33.25;52.91;96260.13;5109466;28;19966;-44
2022/08/04 09:44:21;;;;;;;;;;;;;;;33.49;49.28;96259.28;5110431;28;19955;-46
2022/08/04 09:47:11;;;;;;;;;;;;;;;33.57;47.72;96253.13;5110161;28;19959;-48
2022/08/04 09:49:40;;;;;;;;;;;;;;;34.01;45.91;96254.63;5109432;28;20366;-51
2022/08/04 09:52:10;;;;;;;;;;;;;;;34.52;45.44;96255.63;5109701;28;20396;-53
2022/08/04 09:54:44;;;;;;;;;;;;;;;34.31;42.96;96257.91;5104570;28;20008;-52
2022/08/04 09:57:35;;;;;;;;;;;;;;;34.42;43.01;96249.22;5108746;28;20350;-53
2022/08/04 10:00:05;;;;;;;;;;;;;;;34.65;44.05;96252.94;5109214;28;19963;-50
2022/08/04 10:02:45;;;;;;;;;;;;;;;34.91;42.45;96255.16;5103334;28;20186;-48
2022/08/04 10:05:15;;;;;;;;;;;;;;;35.48;41.43;96257.50;5107901;28;20546;-50
2022/08/04 10:07:48;;;;;;;;;;;;;;;35.29;42.24;96246.69;5103778;28;19974;-47
2022/08/04 10:10:38;;;;;;;;;;;;;;;35.18;41.53;96248.84;5109625;28;20372;-51
2022/08/04 10:13:14;;;;;;;;;;;;;;;35.40;41.18;96248.88;5109336;28;20539;-52
2022/08/04 10:15:45;;;;;;;;;;;;;;;35.45;41.65;96247.97;5108651;28;19963;-45
2022/08/04 10:18:19;;;;;;;;;;;;;;;35.56;40.15;96243.91;5109936;28;20068;-52
2022/08/04 10:21:01;;;;;;;;;;;;;;;35.85;40.18;96239.91;5109670;28;19963;-51
2022/08/04 10:23:40;;;;;;;;;;;;;;;35.69;37.45;96239.47;5107594;28;19967;-51
2022/08/04 10:26:29;;;;;;;;;;;;;;;35.30;37.79;96246.38;5106297;28;19955;-49
2022/08/04 10:29:00;;;;;;;;;;;;;;;35.77;37.51;96244.22;5110023;28;19946;-50
2022/08/04 10:31:30;;;;;;;;;;;;;;;35.54;37.04;96240.63;5109063;28;19962;-56
2022/08/04 10:34:00;;;;;;;;;;;;;;;35.52;38.54;96242.91;5110033;28;19955;-47
2022/08/04 10:36:28;;;;;;;;;;;;;;;36.13;37.01;96244.16;5109599;28;19967;-53
2022/08/04 10:38:57;;;;;;;;;;;;;;;35.98;36.72;96232.72;5105600;28;19970;-49
2022/08/04 10:41:27;;;;;;;;;;;;;;;36.28;35.76;96234.72;5109596;28;19966;-47
2022/08/04 10:43:59;;;;;;;;;;;;;;;36.47;34.41;96228.16;5109980;28;21102;-49
2022/08/04 10:46:31;;;;;;;;;;;;;;;36.24;34.31;96228.22;5109908;28;19955;-46
2022/08/04 10:49:02;;;;;;;;;;;;;;;36.21;36.11;96228.06;5107050;28;19959;-46
2022/08/04 10:51:34;;;;;;;;;;;;;;;35.50;34.21;96225.91;5107020;28;19959;-54
2022/08/04 10:54:24;;;;;;;;;;;;;;;36.02;33.96;96226.31;5100166;28;19959;-45
2022/08/04 10:56:53;;;;;;;;;;;;;;;36.27;33.02;96230.34;5109021;28;19950;-47
2022/08/04 10:59:25;;;;;;;;;;;;;;;36.34;32.46;96219.72;5109373;28;20404;-52
2022/08/04 11:01:55;;;;;;;;;;;;;;;36.69;32.07;96227.31;5109332;28;19955;-50
2022/08/04 11:04:31;;;;;;;;;;;;;;;36.73;32.06;96220.06;5109040;28;19962;-53
2022/08/04 11:06:59;;;;;;;;;;;;;;;36.65;32.46;96218.91;5109372;28;20436;-53
2022/08/04 11:09:28;;;;;;;;;;;;;;;36.26;33.02;96220.47;5109579;28;19928;-55
2022/08/04 11:11:58;;;;;;;;;;;;;;;36.53;32.47;96222.25;5107783;28;19955;-47
2022/08/04 11:14:30;;;;;;;;;;;;;;;36.26;32.41;96219.66;5109506;28;19967;-50
2022/08/04 11:17:01;;;;;;;;;;;;;;;36.04;32.40;96223.28;5109431;28;20467;-50
2022/08/04 11:19:31;;;;;;;;;;;;;;;36.25;32.35;96215.31;5108205;28;20398;-53
2022/08/04 11:22:18;;;;;;;;;;;;;;;37.10;32.38;96204.13;5107799;28;19951;-46
2022/08/04 11:24:50;;;;;;;;;;;;;;;36.63;32.55;96215.66;5113239;28;19951;-54
2022/08/04 11:27:20;;;;;;;;;;;;;;;37.11;32.43;96209.31;5112610;27;19959;-45
2022/08/04 11:29:51;;;;;;;;;;;;;;;37.06;32.28;96204.78;5112740;28;19966;-52
2022/08/04 11:32:21;;;;;;;;;;;;;;;37.58;31.13;96206.78;5112866;28;19955;-50
2022/08/04 11:34:50;;;;;;;;;;;;;;;37.61;30.62;96202.56;5112744;28;20338;-54
2022/08/04 11:37:21;;;;;;;;;;;;;;;37.58;30.89;96206.78;5112868;28;20015;-52
2022/08/04 11:39:50;;;;;;;;;;;;;;;36.93;31.32;96204.91;5112571;28;20308;-47
2022/08/04 11:42:20;;;;;;;;;;;;;;;36.66;32.09;96208.72;5112022;27;20009;-49
2022/08/04 11:44:48;;;;;;;;;;;;;;;36.80;32.17;96203.91;5111972;28;20424;-48
2022/08/04 11:47:24;;;;;;;;;;;;;;;37.06;31.69;96199.31;5106488;28;19970;-49
2022/08/04 11:49:53;;;;;;;;;;;;;;;36.64;32.51;96205.47;5111846;28;19954;-48
2022/08/04 11:52:24;;;;;;;;;;;;;;;37.14;32.53;96202.38;5112118;28;19966;-52
2022/08/04 11:54:53;;;;;;;;;;;;;;;37.45;31.93;96202.25;5112433;28;19970;-51
2022/08/04 11:57:22;;;;;;;;;;;;;;;37.59;31.70;96205.66;5112133;28;19978;-46
2022/08/04 12:00:05;;;;;;;;;;;;;;;37.61;31.02;96199.81;5105767;28;19967;-51
2022/08/04 12:02:54;;;;;;;;;;;;;;;37.13;31.29;96198.00;5111267;28;20033;-54
2022/08/04 12:05:25;;;;;;;;;;;;;;;37.08;30.15;96193.47;5110369;28;19967;-53
2022/08/04 12:08:11;;;;;;;;;;;;;;;37.05;31.76;96208.66;5112263;28;19974;-46
2022/08/04 12:10:41;;;;;;;;;;;;;;;37.62;29.52;96196.75;5111546;27;20551;-54
2022/08/04 12:13:16;;;;;;;;;;;;;;;37.54;29.30;96194.78;5111299;28;19971;-52
2022/08/04 12:15:52;;;;;;;;;;;;;;;37.41;28.81;96193.81;5108251;27;19963;-50
2022/08/04 12:18:22;;;;;;;;;;;;;;;37.55;29.00;96190.94;5115320;27;20547;-50
2022/08/04 12:20:53;;;;;;;;;;;;;;;37.45;29.03;96191.25;5111543;28;20388;-47
2022/08/04 12:23:22;;;;;;;;;;;;;;;37.83;29.31;96185.88;5111049;28;19970;-46
2022/08/04 12:25:52;;;;;;;;;;;;;;;38.10;27.64;96184.69;5111798;28;20409;-47
2022/08/04 12:28:23;;;;;;;;;;;;;;;37.75;27.98;96179.25;5111756;28;19962;-52
2022/08/04 12:30:52;;;;;;;;;;;;;;;37.45;28.45;96183.81;5111107;28;19963;-49
2022/08/04 12:33:34;;;;;;;;;;;;;;;37.85;29.31;96178.06;5110830;28;19993;-52
2022/08/04 12:36:24;;;;;;;;;;;;;;;37.26;29.42;96175.03;5111128;27;19951;-53
2022/08/04 12:38:56;;;;;;;;;;;;;;;37.14;29.98;96175.69;5111275;27;19959;-49
2022/08/04 12:41:25;;;;;;;;;;;;;;;37.74;28.61;96171.28;5111397;28;19981;-47
2022/08/04 12:43:54;;;;;;;;;;;;;;;38.11;27.78;96169.78;5110741;28;20377;-50
2022/08/04 12:46:22;;;;;;;;;;;;;;;37.71;28.87;96163.69;5111297;28;19962;-48
2022/08/04 12:48:52;;;;;;;;;;;;;;;37.82;28.75;96167.72;5108414;28;20368;-50
2022/08/04 12:51:21;;;;;;;;;;;;;;;38.02;28.41;96163.47;5111398;27;19959;-51
2022/08/04 12:54:11;;;;;;;;;;;;;;;37.53;28.92;96171.16;5110936;28;19966;-48
2022/08/04 12:56:39;;;;;;;;;;;;;;;37.95;28.61;96165.94;5110713;28;19962;-45
2022/08/04 12:59:07;;;;;;;;;;;;;;;38.49;28.07;96163.50;5110870;28;19955;-50
2022/08/04 13:01:40;;;;;;;;;;;;;;;37.95;29.36;96152.97;5110179;28;19963;-54
2022/08/04 13:04:29;;;;;;;;;;;;;;;37.75;29.09;96159.13;5110347;28;19953;-52
2022/08/04 13:06:57;;;;;;;;;;;;;;;38.34;28.56;96155.75;5111212;28;19970;-52
2022/08/04 13:09:32;;;;;;;;;;;;;;;37.97;28.31;96153.47;5110545;28;20546;-46
2022/08/04 13:12:02;;;;;;;;;;;;;;;38.29;27.98;96153.97;5109955;27;19969;-55
2022/08/04 13:14:32;;;;;;;;;;;;;;;38.15;27.86;96148.69;5111354;27;19962;-55
2022/08/04 13:17:00;;;;;;;;;;;;;;;38.11;28.11;96139.47;5116500;27;19982;-54
2022/08/04 13:19:30;;;;;;;;;;;;;;;38.44;29.10;96145.22;5110310;28;19955;-46